sensor_id;sensor_type;location;lat;lon;timestamp;P1;durP1;ratioP1;P2;durP2;ratioP2
63218;SDS011;49320;52.512;13.448;2023-03-01T00:01:38;14.10;;;9.13;;
63218;SDS011;49320;52.512;13.448;2023-03-01T00:04:05;14.05;;;9.18;;
63218;SDS011;49320;52.512;13.448;2023-03-01T00:06:31;13.10;;;9.27;;
63218;SDS011;49320;52.512;13.448;2023-03-01T00:08:59;12.60;;;8.95;;
63218;SDS011;49320;52.512;13.448;2023-03-01T00:11:26;12.85;;;9.90;;
63218;SDS011;49320;52.512;13.448;2023-03-01T00:13:56;13.75;;;10.00;;
63218;SDS011;49320;52.512;13.448;2023-03-01T00:16:34;13.43;;;9.60;;
63218;SDS011;49320;52.512;13.448;2023-03-01T00:19:08;12.43;;;8.75;;
63218;SDS011;49320;52.512;13.448;2023-03-01T00:21:40;11.38;;;8.73;;
63218;SDS011;49320;52.512;13.448;2023-03-01T00:24:07;12.45;;;9.32;;
63218;SDS011;49320;52.512;13.448;2023-03-01T00:26:34;12.55;;;8.73;;
63218;SDS011;49320;52.512;13.448;2023-03-01T00:29:02;11.48;;;9.05;;
63218;SDS011;49320;52.512;13.448;2023-03-01T00:31:30;11.07;;;8.77;;
63218;SDS011;49320;52.512;13.448;2023-03-01T00:33:59;11.73;;;8.63;;
63218;SDS011;49320;52.512;13.448;2023-03-01T00:36:30;11.93;;;9.38;;
63218;SDS011;49320;52.512;13.448;2023-03-01T00:39:02;10.70;;;7.88;;
63218;SDS011;49320;52.512;13.448;2023-03-01T00:41:31;13.70;;;8.63;;
63218;SDS011;49320;52.512;13.448;2023-03-01T00:44:00;10.60;;;8.05;;
63218;SDS011;49320;52.512;13.448;2023-03-01T00:46:27;10.23;;;8.18;;
63218;SDS011;49320;52.512;13.448;2023-03-01T00:48:57;12.02;;;8.40;;
63218;SDS011;49320;52.512;13.448;2023-03-01T00:51:24;12.68;;;8.45;;
63218;SDS011;49320;52.512;13.448;2023-03-01T00:53:54;11.13;;;8.30;;
63218;SDS011;49320;52.512;13.448;2023-03-01T00:56:23;11.07;;;8.93;;
63218;SDS011;49320;52.512;13.448;2023-03-01T00:58:50;10.38;;;8.02;;
63218;SDS011;49320;52.512;13.448;2023-03-01T01:01:20;10.98;;;7.75;;
63218;SDS011;49320;52.512;13.448;2023-03-01T01:04:04;10.13;;;7.93;;
63218;SDS011;49320;52.512;13.448;2023-03-01T01:06:41;11.05;;;8.18;;
63218;SDS011;49320;52.512;13.448;2023-03-01T01:09:13;10.80;;;7.80;;
63218;SDS011;49320;52.512;13.448;2023-03-01T01:11:47;9.23;;;7.35;;
63218;SDS011;49320;52.512;13.448;2023-03-01T01:14:17;11.35;;;8.98;;
63218;SDS011;49320;52.512;13.448;2023-03-01T01:16:44;10.50;;;8.40;;
63218;SDS011;49320;52.512;13.448;2023-03-01T01:19:12;12.68;;;8.57;;
63218;SDS011;49320;52.512;13.448;2023-03-01T01:21:40;11.55;;;8.35;;
63218;SDS011;49320;52.512;13.448;2023-03-01T01:24:09;10.77;;;8.25;;
63218;SDS011;49320;52.512;13.448;2023-03-01T01:26:36;11.20;;;8.32;;
63218;SDS011;49320;52.512;13.448;2023-03-01T01:29:04;10.10;;;8.15;;
63218;SDS011;49320;52.512;13.448;2023-03-01T01:31:32;8.43;;;7.53;;
63218;SDS011;49320;52.512;13.448;2023-03-01T01:34:01;11.65;;;8.13;;
63218;SDS011;49320;52.512;13.448;2023-03-01T01:36:30;10.82;;;8.00;;
63218;SDS011;49320;52.512;13.448;2023-03-01T01:38:58;10.82;;;8.05;;
63218;SDS011;49320;52.512;13.448;2023-03-01T01:41:26;10.52;;;8.27;;
63218;SDS011;49320;52.512;13.448;2023-03-01T01:44:15;11.02;;;8.30;;
63218;SDS011;49320;52.512;13.448;2023-03-01T01:46:55;10.82;;;7.97;;
63218;SDS011;49320;52.512;13.448;2023-03-01T01:52:14;10.52;;;8.45;;
63218;SDS011;49320;52.512;13.448;2023-03-01T01:55:00;10.15;;;7.95;;
63218;SDS011;49320;52.512;13.448;2023-03-01T01:57:36;10.60;;;8.35;;
63218;SDS011;49320;52.512;13.448;2023-03-01T02:00:09;12.68;;;8.55;;
63218;SDS011;49320;52.512;13.448;2023-03-01T02:02:45;11.07;;;8.07;;
63218;SDS011;49320;52.512;13.448;2023-03-01T02:05:20;10.50;;;8.40;;
63218;SDS011;49320;52.512;13.448;2023-03-01T02:07:59;12.00;;;8.23;;
63218;SDS011;49320;52.512;13.448;2023-03-01T02:10:26;10.98;;;8.07;;
63218;SDS011;49320;52.512;13.448;2023-03-01T02:12:56;11.07;;;7.85;;
63218;SDS011;49320;52.512;13.448;2023-03-01T02:15:24;12.05;;;7.70;;
63218;SDS011;49320;52.512;13.448;2023-03-01T02:17:52;9.95;;;7.28;;
63218;SDS011;49320;52.512;13.448;2023-03-01T02:20:23;10.45;;;7.93;;
63218;SDS011;49320;52.512;13.448;2023-03-01T02:23:00;9.93;;;7.97;;
63218;SDS011;49320;52.512;13.448;2023-03-01T02:25:31;10.40;;;8.13;;
63218;SDS011;49320;52.512;13.448;2023-03-01T02:30:52;10.95;;;8.35;;
63218;SDS011;49320;52.512;13.448;2023-03-01T02:33:39;9.32;;;7.10;;
63218;SDS011;49320;52.512;13.448;2023-03-01T02:36:09;9.13;;;7.60;;
63218;SDS011;49320;52.512;13.448;2023-03-01T02:38:44;10.35;;;7.30;;
63218;SDS011;49320;52.512;13.448;2023-03-01T02:41:15;9.25;;;6.82;;
63218;SDS011;49320;52.512;13.448;2023-03-01T02:43:45;9.43;;;7.30;;
63218;SDS011;49320;52.512;13.448;2023-03-01T02:46:17;9.27;;;7.15;;
63218;SDS011;49320;52.512;13.448;2023-03-01T02:48:51;11.52;;;7.50;;
63218;SDS011;49320;52.512;13.448;2023-03-01T02:51:38;10.68;;;7.40;;
63218;SDS011;49320;52.512;13.448;2023-03-01T02:56:59;9.15;;;7.43;;
63218;SDS011;49320;52.512;13.448;2023-03-01T02:59:29;10.80;;;8.10;;
63218;SDS011;49320;52.512;13.448;2023-03-01T03:02:05;10.73;;;8.10;;
63218;SDS011;49320;52.512;13.448;2023-03-01T03:04:34;10.68;;;7.78;;
63218;SDS011;49320;52.512;13.448;2023-03-01T03:07:00;11.93;;;8.40;;
63218;SDS011;49320;52.512;13.448;2023-03-01T03:09:27;11.10;;;8.10;;
63218;SDS011;49320;52.512;13.448;2023-03-01T03:11:54;10.18;;;7.90;;
63218;SDS011;49320;52.512;13.448;2023-03-01T03:14:21;12.90;;;8.20;;
63218;SDS011;49320;52.512;13.448;2023-03-01T03:16:48;10.15;;;8.05;;
63218;SDS011;49320;52.512;13.448;2023-03-01T03:19:16;10.73;;;8.23;;
63218;SDS011;49320;52.512;13.448;2023-03-01T03:21:45;11.15;;;8.52;;
63218;SDS011;49320;52.512;13.448;2023-03-01T03:24:12;12.23;;;8.57;;
63218;SDS011;49320;52.512;13.448;2023-03-01T03:26:39;10.38;;;7.85;;
63218;SDS011;49320;52.512;13.448;2023-03-01T03:29:06;11.25;;;8.30;;
63218;SDS011;49320;52.512;13.448;2023-03-01T03:31:33;13.60;;;9.02;;
63218;SDS011;49320;52.512;13.448;2023-03-01T03:34:00;10.98;;;8.20;;
63218;SDS011;49320;52.512;13.448;2023-03-01T03:36:27;11.20;;;8.70;;
63218;SDS011;49320;52.512;13.448;2023-03-01T03:38:54;13.07;;;9.68;;
63218;SDS011;49320;52.512;13.448;2023-03-01T03:41:20;11.98;;;9.20;;
63218;SDS011;49320;52.512;13.448;2023-03-01T03:43:47;16.42;;;10.48;;
63218;SDS011;49320;52.512;13.448;2023-03-01T03:46:15;11.93;;;9.27;;
63218;SDS011;49320;52.512;13.448;2023-03-01T03:48:43;10.82;;;8.63;;
63218;SDS011;49320;52.512;13.448;2023-03-01T03:51:12;13.30;;;9.30;;
63218;SDS011;49320;52.512;13.448;2023-03-01T03:53:41;14.82;;;10.05;;
63218;SDS011;49320;52.512;13.448;2023-03-01T03:56:10;12.57;;;9.60;;
63218;SDS011;49320;52.512;13.448;2023-03-01T03:58:38;12.57;;;9.50;;
63218;SDS011;49320;52.512;13.448;2023-03-01T04:01:05;12.13;;;8.98;;
63218;SDS011;49320;52.512;13.448;2023-03-01T04:03:32;15.15;;;9.10;;
63218;SDS011;49320;52.512;13.448;2023-03-01T04:06:01;15.15;;;9.65;;
63218;SDS011;49320;52.512;13.448;2023-03-01T04:08:30;12.98;;;9.88;;
63218;SDS011;49320;52.512;13.448;2023-03-01T04:10:58;13.90;;;9.57;;
63218;SDS011;49320;52.512;13.448;2023-03-01T04:13:46;13.07;;;10.30;;
63218;SDS011;49320;52.512;13.448;2023-03-01T04:16:14;12.07;;;9.75;;
63218;SDS011;49320;52.512;13.448;2023-03-01T04:18:41;14.77;;;9.63;;
63218;SDS011;49320;52.512;13.448;2023-03-01T04:21:08;14.35;;;10.27;;
63218;SDS011;49320;52.512;13.448;2023-03-01T04:23:34;13.07;;;10.00;;
63218;SDS011;49320;52.512;13.448;2023-03-01T04:26:02;12.50;;;10.27;;
63218;SDS011;49320;52.512;13.448;2023-03-01T04:28:31;14.95;;;11.30;;
63218;SDS011;49320;52.512;13.448;2023-03-01T04:31:03;13.60;;;10.75;;
63218;SDS011;49320;52.512;13.448;2023-03-01T04:33:40;15.27;;;11.98;;
63218;SDS011;49320;52.512;13.448;2023-03-01T04:36:11;15.73;;;11.45;;
63218;SDS011;49320;52.512;13.448;2023-03-01T04:38:40;15.68;;;11.57;;
63218;SDS011;49320;52.512;13.448;2023-03-01T04:41:09;16.08;;;12.00;;
63218;SDS011;49320;52.512;13.448;2023-03-01T04:43:37;15.93;;;12.35;;
63218;SDS011;49320;52.512;13.448;2023-03-01T04:46:05;17.23;;;12.38;;
63218;SDS011;49320;52.512;13.448;2023-03-01T04:48:36;16.92;;;12.75;;
63218;SDS011;49320;52.512;13.448;2023-03-01T04:51:05;23.17;;;15.40;;
63218;SDS011;49320;52.512;13.448;2023-03-01T04:53:33;22.08;;;16.00;;
63218;SDS011;49320;52.512;13.448;2023-03-01T04:56:04;23.98;;;16.90;;
63218;SDS011;49320;52.512;13.448;2023-03-01T04:58:32;21.13;;;15.82;;
63218;SDS011;49320;52.512;13.448;2023-03-01T05:00:59;20.73;;;14.63;;
63218;SDS011;49320;52.512;13.448;2023-03-01T05:03:25;25.08;;;16.13;;
63218;SDS011;49320;52.512;13.448;2023-03-01T05:05:53;25.90;;;18.77;;
63218;SDS011;49320;52.512;13.448;2023-03-01T05:08:20;26.08;;;17.77;;
63218;SDS011;49320;52.512;13.448;2023-03-01T05:10:50;26.20;;;18.85;;
63218;SDS011;49320;52.512;13.448;2023-03-01T05:13:19;23.73;;;17.75;;
63218;SDS011;49320;52.512;13.448;2023-03-01T05:15:48;22.23;;;16.50;;
63218;SDS011;49320;52.512;13.448;2023-03-01T05:18:20;22.63;;;16.58;;
63218;SDS011;49320;52.512;13.448;2023-03-01T05:20:52;23.13;;;16.20;;
63218;SDS011;49320;52.512;13.448;2023-03-01T05:23:22;21.10;;;15.32;;
63218;SDS011;49320;52.512;13.448;2023-03-01T05:25:49;18.65;;;13.77;;
63218;SDS011;49320;52.512;13.448;2023-03-01T05:28:18;19.08;;;14.20;;
63218;SDS011;49320;52.512;13.448;2023-03-01T05:30:46;18.35;;;12.68;;
63218;SDS011;49320;52.512;13.448;2023-03-01T05:33:13;17.90;;;13.43;;
63218;SDS011;49320;52.512;13.448;2023-03-01T05:35:43;17.35;;;12.45;;
63218;SDS011;49320;52.512;13.448;2023-03-01T05:38:11;16.17;;;12.55;;
63218;SDS011;49320;52.512;13.448;2023-03-01T05:40:40;17.58;;;12.70;;
63218;SDS011;49320;52.512;13.448;2023-03-01T05:43:09;16.60;;;11.52;;
63218;SDS011;49320;52.512;13.448;2023-03-01T05:45:38;17.00;;;12.20;;
63218;SDS011;49320;52.512;13.448;2023-03-01T05:48:07;17.10;;;11.60;;
63218;SDS011;49320;52.512;13.448;2023-03-01T05:50:37;15.15;;;11.32;;
63218;SDS011;49320;52.512;13.448;2023-03-01T05:53:09;15.63;;;12.20;;
63218;SDS011;49320;52.512;13.448;2023-03-01T05:55:40;14.45;;;10.77;;
63218;SDS011;49320;52.512;13.448;2023-03-01T05:58:12;13.32;;;11.13;;
63218;SDS011;49320;52.512;13.448;2023-03-01T06:00:44;15.70;;;11.68;;
63218;SDS011;49320;52.512;13.448;2023-03-01T06:03:13;16.08;;;11.75;;
63218;SDS011;49320;52.512;13.448;2023-03-01T06:05:42;14.27;;;11.35;;
63218;SDS011;49320;52.512;13.448;2023-03-01T06:08:10;13.57;;;11.02;;
63218;SDS011;49320;52.512;13.448;2023-03-01T06:10:38;16.27;;;11.77;;
63218;SDS011;49320;52.512;13.448;2023-03-01T06:13:06;14.60;;;10.98;;
63218;SDS011;49320;52.512;13.448;2023-03-01T06:15:33;16.45;;;11.73;;
63218;SDS011;49320;52.512;13.448;2023-03-01T06:18:00;13.82;;;10.80;;
63218;SDS011;49320;52.512;13.448;2023-03-01T06:20:27;16.80;;;11.27;;
63218;SDS011;49320;52.512;13.448;2023-03-01T06:22:58;14.70;;;11.40;;
63218;SDS011;49320;52.512;13.448;2023-03-01T06:25:26;17.58;;;12.82;;
63218;SDS011;49320;52.512;13.448;2023-03-01T06:27:53;18.00;;;12.63;;
63218;SDS011;49320;52.512;13.448;2023-03-01T06:30:22;14.05;;;11.32;;
63218;SDS011;49320;52.512;13.448;2023-03-01T06:32:51;17.10;;;12.82;;
63218;SDS011;49320;52.512;13.448;2023-03-01T06:35:19;17.40;;;12.07;;
63218;SDS011;49320;52.512;13.448;2023-03-01T06:37:47;15.20;;;11.57;;
63218;SDS011;49320;52.512;13.448;2023-03-01T06:40:14;15.68;;;11.88;;
63218;SDS011;49320;52.512;13.448;2023-03-01T06:42:43;19.30;;;12.68;;
63218;SDS011;49320;52.512;13.448;2023-03-01T06:45:15;17.38;;;12.60;;
63218;SDS011;49320;52.512;13.448;2023-03-01T06:47:44;17.98;;;13.48;;
63218;SDS011;49320;52.512;13.448;2023-03-01T06:50:12;17.30;;;13.60;;
63218;SDS011;49320;52.512;13.448;2023-03-01T06:52:40;16.75;;;13.70;;
63218;SDS011;49320;52.512;13.448;2023-03-01T06:55:07;18.10;;;13.73;;
63218;SDS011;49320;52.512;13.448;2023-03-01T06:57:34;17.70;;;13.57;;
63218;SDS011;49320;52.512;13.448;2023-03-01T07:00:01;17.80;;;14.48;;
63218;SDS011;49320;52.512;13.448;2023-03-01T07:02:33;20.23;;;15.23;;
63218;SDS011;49320;52.512;13.448;2023-03-01T07:05:00;20.20;;;14.30;;
63218;SDS011;49320;52.512;13.448;2023-03-01T07:07:26;18.10;;;13.38;;
63218;SDS011;49320;52.512;13.448;2023-03-01T07:09:53;15.82;;;12.73;;
63218;SDS011;49320;52.512;13.448;2023-03-01T07:12:20;18.52;;;14.15;;
63218;SDS011;49320;52.512;13.448;2023-03-01T07:14:47;19.75;;;14.15;;
63218;SDS011;49320;52.512;13.448;2023-03-01T07:17:13;17.52;;;13.63;;
63218;SDS011;49320;52.512;13.448;2023-03-01T07:19:40;21.25;;;14.75;;
63218;SDS011;49320;52.512;13.448;2023-03-01T07:22:07;21.77;;;13.85;;
63218;SDS011;49320;52.512;13.448;2023-03-01T07:24:35;17.55;;;13.63;;
63218;SDS011;49320;52.512;13.448;2023-03-01T07:27:02;18.60;;;13.30;;
63218;SDS011;49320;52.512;13.448;2023-03-01T07:29:29;19.08;;;13.15;;
63218;SDS011;49320;52.512;13.448;2023-03-01T07:31:56;18.88;;;13.13;;
63218;SDS011;49320;52.512;13.448;2023-03-01T07:34:23;19.90;;;13.52;;
63218;SDS011;49320;52.512;13.448;2023-03-01T07:36:50;19.13;;;13.73;;
63218;SDS011;49320;52.512;13.448;2023-03-01T07:39:16;18.73;;;13.57;;
63218;SDS011;49320;52.512;13.448;2023-03-01T07:41:44;18.67;;;13.13;;
63218;SDS011;49320;52.512;13.448;2023-03-01T07:44:11;15.00;;;12.65;;
63218;SDS011;49320;52.512;13.448;2023-03-01T07:46:38;16.83;;;12.93;;
63218;SDS011;49320;52.512;13.448;2023-03-01T07:49:05;18.35;;;12.82;;
63218;SDS011;49320;52.512;13.448;2023-03-01T07:51:34;15.88;;;11.40;;
63218;SDS011;49320;52.512;13.448;2023-03-01T07:54:00;14.23;;;11.25;;
63218;SDS011;49320;52.512;13.448;2023-03-01T07:56:28;13.45;;;11.00;;
63218;SDS011;49320;52.512;13.448;2023-03-01T07:58:55;13.07;;;9.70;;
63218;SDS011;49320;52.512;13.448;2023-03-01T08:01:22;12.15;;;9.30;;
63218;SDS011;49320;52.512;13.448;2023-03-01T08:03:49;12.43;;;9.05;;
63218;SDS011;49320;52.512;13.448;2023-03-01T08:06:16;11.35;;;9.35;;
63218;SDS011;49320;52.512;13.448;2023-03-01T08:08:44;12.55;;;8.38;;
63218;SDS011;49320;52.512;13.448;2023-03-01T08:11:12;13.82;;;9.75;;
63218;SDS011;49320;52.512;13.448;2023-03-01T08:13:41;12.68;;;8.88;;
63218;SDS011;49320;52.512;13.448;2023-03-01T08:16:13;10.75;;;8.05;;
63218;SDS011;49320;52.512;13.448;2023-03-01T08:18:42;10.93;;;8.43;;
63218;SDS011;49320;52.512;13.448;2023-03-01T08:21:14;10.70;;;8.73;;
63218;SDS011;49320;52.512;13.448;2023-03-01T08:23:43;9.55;;;7.85;;
63218;SDS011;49320;52.512;13.448;2023-03-01T08:26:11;11.13;;;8.48;;
63218;SDS011;49320;52.512;13.448;2023-03-01T08:28:42;12.20;;;7.95;;
63218;SDS011;49320;52.512;13.448;2023-03-01T08:31:16;10.43;;;8.48;;
63218;SDS011;49320;52.512;13.448;2023-03-01T08:34:00;12.13;;;8.10;;
63218;SDS011;49320;52.512;13.448;2023-03-01T08:36:31;10.95;;;8.13;;
63218;SDS011;49320;52.512;13.448;2023-03-01T08:39:04;10.90;;;7.40;;
63218;SDS011;49320;52.512;13.448;2023-03-01T08:41:32;10.35;;;7.78;;
63218;SDS011;49320;52.512;13.448;2023-03-01T08:43:59;9.27;;;7.82;;
63218;SDS011;49320;52.512;13.448;2023-03-01T08:46:27;10.73;;;7.35;;
63218;SDS011;49320;52.512;13.448;2023-03-01T08:48:56;12.45;;;7.47;;
63218;SDS011;49320;52.512;13.448;2023-03-01T08:51:23;10.05;;;7.82;;
63218;SDS011;49320;52.512;13.448;2023-03-01T08:53:52;10.00;;;7.88;;
63218;SDS011;49320;52.512;13.448;2023-03-01T08:56:19;11.02;;;7.82;;
63218;SDS011;49320;52.512;13.448;2023-03-01T08:58:47;11.63;;;8.40;;
63218;SDS011;49320;52.512;13.448;2023-03-01T09:01:16;10.65;;;7.07;;
63218;SDS011;49320;52.512;13.448;2023-03-01T09:03:45;11.10;;;8.27;;
63218;SDS011;49320;52.512;13.448;2023-03-01T09:06:13;11.07;;;7.32;;
63218;SDS011;49320;52.512;13.448;2023-03-01T09:08:41;9.25;;;7.47;;
63218;SDS011;49320;52.512;13.448;2023-03-01T09:11:12;10.38;;;7.45;;
63218;SDS011;49320;52.512;13.448;2023-03-01T09:13:43;10.13;;;6.82;;
63218;SDS011;49320;52.512;13.448;2023-03-01T09:16:12;10.15;;;7.43;;
63218;SDS011;49320;52.512;13.448;2023-03-01T09:18:44;10.35;;;7.15;;
63218;SDS011;49320;52.512;13.448;2023-03-01T09:21:16;9.45;;;6.10;;
63218;SDS011;49320;52.512;13.448;2023-03-01T09:23:55;8.52;;;5.38;;
63218;SDS011;49320;52.512;13.448;2023-03-01T09:26:24;7.85;;;6.05;;
63218;SDS011;49320;52.512;13.448;2023-03-01T09:28:52;7.47;;;5.50;;
63218;SDS011;49320;52.512;13.448;2023-03-01T09:31:22;9.48;;;5.50;;
63218;SDS011;49320;52.512;13.448;2023-03-01T09:33:52;7.82;;;5.30;;
63218;SDS011;49320;52.512;13.448;2023-03-01T09:36:21;8.27;;;5.65;;
63218;SDS011;49320;52.512;13.448;2023-03-01T09:38:51;7.38;;;5.47;;
63218;SDS011;49320;52.512;13.448;2023-03-01T09:44:21;6.75;;;4.53;;
63218;SDS011;49320;52.512;13.448;2023-03-01T09:47:30;7.10;;;4.15;;
63218;SDS011;49320;52.512;13.448;2023-03-01T09:52:44;5.18;;;3.95;;
63218;SDS011;49320;52.512;13.448;2023-03-01T09:55:40;7.05;;;4.00;;
63218;SDS011;49320;52.512;13.448;2023-03-01T10:04:04;4.38;;;3.70;;
63218;SDS011;49320;52.512;13.448;2023-03-01T10:09:49;4.88;;;3.45;;
63218;SDS011;49320;52.512;13.448;2023-03-01T10:12:26;5.82;;;4.07;;
63218;SDS011;49320;52.512;13.448;2023-03-01T10:17:45;6.53;;;4.18;;
63218;SDS011;49320;52.512;13.448;2023-03-01T10:22:48;5.75;;;3.88;;
63218;SDS011;49320;52.512;13.448;2023-03-01T10:25:36;6.05;;;3.65;;
63218;SDS011;49320;52.512;13.448;2023-03-01T10:31:23;5.20;;;3.47;;
63218;SDS011;49320;52.512;13.448;2023-03-01T10:33:55;7.10;;;4.03;;
63218;SDS011;49320;52.512;13.448;2023-03-01T10:36:23;7.85;;;4.38;;
63218;SDS011;49320;52.512;13.448;2023-03-01T10:38:51;6.07;;;3.78;;
63218;SDS011;49320;52.512;13.448;2023-03-01T10:41:24;4.90;;;3.60;;
63218;SDS011;49320;52.512;13.448;2023-03-01T10:43:54;4.95;;;3.58;;
63218;SDS011;49320;52.512;13.448;2023-03-01T10:46:33;6.57;;;3.65;;
63218;SDS011;49320;52.512;13.448;2023-03-01T10:49:20;5.53;;;3.80;;
63218;SDS011;49320;52.512;13.448;2023-03-01T10:51:50;4.90;;;3.50;;
63218;SDS011;49320;52.512;13.448;2023-03-01T10:54:22;6.20;;;3.55;;
63218;SDS011;49320;52.512;13.448;2023-03-01T10:56:59;5.75;;;3.60;;
63218;SDS011;49320;52.512;13.448;2023-03-01T11:07:53;4.70;;;2.50;;
63218;SDS011;49320;52.512;13.448;2023-03-01T11:10:34;5.23;;;2.93;;
63218;SDS011;49320;52.512;13.448;2023-03-01T11:13:20;3.63;;;2.80;;
63218;SDS011;49320;52.512;13.448;2023-03-01T11:16:03;3.60;;;2.55;;
63218;SDS011;49320;52.512;13.448;2023-03-01T11:18:36;4.65;;;2.63;;
63218;SDS011;49320;52.512;13.448;2023-03-01T11:21:13;4.43;;;2.83;;
63218;SDS011;49320;52.512;13.448;2023-03-01T11:23:41;2.92;;;2.40;;
63218;SDS011;49320;52.512;13.448;2023-03-01T11:26:12;4.10;;;2.60;;
63218;SDS011;49320;52.512;13.448;2023-03-01T11:28:41;3.15;;;2.47;;
63218;SDS011;49320;52.512;13.448;2023-03-01T11:31:12;2.45;;;1.77;;
63218;SDS011;49320;52.512;13.448;2023-03-01T11:33:54;2.95;;;2.03;;
63218;SDS011;49320;52.512;13.448;2023-03-01T11:36:52;2.65;;;1.95;;
63218;SDS011;49320;52.512;13.448;2023-03-01T11:39:38;3.83;;;1.77;;
63218;SDS011;49320;52.512;13.448;2023-03-01T11:42:17;3.42;;;2.33;;
63218;SDS011;49320;52.512;13.448;2023-03-01T11:44:52;4.15;;;2.15;;
63218;SDS011;49320;52.512;13.448;2023-03-01T11:47:30;3.05;;;2.08;;
63218;SDS011;49320;52.512;13.448;2023-03-01T11:50:26;3.13;;;2.10;;
63218;SDS011;49320;52.512;13.448;2023-03-01T11:55:56;2.72;;;1.92;;
63218;SDS011;49320;52.512;13.448;2023-03-01T12:07:49;2.08;;;1.63;;
63218;SDS011;49320;52.512;13.448;2023-03-01T12:10:46;2.30;;;1.95;;
63218;SDS011;49320;52.512;13.448;2023-03-01T12:14:02;2.00;;;1.70;;
63218;SDS011;49320;52.512;13.448;2023-03-01T12:16:58;6.07;;;1.92;;
63218;SDS011;49320;52.512;13.448;2023-03-01T12:20:02;5.78;;;1.80;;
63218;SDS011;49320;52.512;13.448;2023-03-01T12:26:01;2.53;;;1.90;;
63218;SDS011;49320;52.512;13.448;2023-03-01T12:34:55;2.05;;;1.60;;
63218;SDS011;49320;52.512;13.448;2023-03-01T12:37:47;2.47;;;1.88;;
63218;SDS011;49320;52.512;13.448;2023-03-01T12:43:34;3.35;;;2.10;;
63218;SDS011;49320;52.512;13.448;2023-03-01T12:46:35;2.70;;;1.65;;
63218;SDS011;49320;52.512;13.448;2023-03-01T12:49:28;2.53;;;1.73;;
63218;SDS011;49320;52.512;13.448;2023-03-01T12:55:07;2.80;;;1.90;;
63218;SDS011;49320;52.512;13.448;2023-03-01T12:57:52;3.42;;;2.00;;
63218;SDS011;49320;52.512;13.448;2023-03-01T13:04:29;4.68;;;1.98;;
63218;SDS011;49320;52.512;13.448;2023-03-01T13:07:37;2.17;;;1.60;;
63218;SDS011;49320;52.512;13.448;2023-03-01T13:13:21;2.80;;;1.98;;
63218;SDS011;49320;52.512;13.448;2023-03-01T13:15:54;2.60;;;1.52;;
63218;SDS011;49320;52.512;13.448;2023-03-01T13:20:49;3.75;;;2.30;;
63218;SDS011;49320;52.512;13.448;2023-03-01T13:33:47;3.53;;;2.30;;
63218;SDS011;49320;52.512;13.448;2023-03-01T13:44:37;3.60;;;1.70;;
63218;SDS011;49320;52.512;13.448;2023-03-01T13:49:43;3.30;;;2.38;;
63218;SDS011;49320;52.512;13.448;2023-03-01T13:55:38;3.00;;;2.17;;
63218;SDS011;49320;52.512;13.448;2023-03-01T14:01:05;2.67;;;2.00;;
63218;SDS011;49320;52.512;13.448;2023-03-01T14:03:46;2.70;;;2.20;;
63218;SDS011;49320;52.512;13.448;2023-03-01T14:06:19;3.85;;;1.98;;
63218;SDS011;49320;52.512;13.448;2023-03-01T14:09:03;3.70;;;2.15;;
63218;SDS011;49320;52.512;13.448;2023-03-01T14:15:14;3.17;;;1.88;;
63218;SDS011;49320;52.512;13.448;2023-03-01T14:20:41;3.10;;;2.30;;
63218;SDS011;49320;52.512;13.448;2023-03-01T14:23:18;4.03;;;2.42;;
63218;SDS011;49320;52.512;13.448;2023-03-01T14:25:48;2.45;;;2.08;;
63218;SDS011;49320;52.512;13.448;2023-03-01T14:28:24;4.00;;;1.90;;
63218;SDS011;49320;52.512;13.448;2023-03-01T14:30:56;2.47;;;1.98;;
63218;SDS011;49320;52.512;13.448;2023-03-01T14:33:35;4.47;;;2.17;;
63218;SDS011;49320;52.512;13.448;2023-03-01T14:36:08;3.35;;;2.10;;
63218;SDS011;49320;52.512;13.448;2023-03-01T14:38:39;2.67;;;1.88;;
63218;SDS011;49320;52.512;13.448;2023-03-01T14:41:17;3.88;;;1.63;;
63218;SDS011;49320;52.512;13.448;2023-03-01T14:43:53;2.85;;;1.95;;
63218;SDS011;49320;52.512;13.448;2023-03-01T14:46:37;3.80;;;2.00;;
63218;SDS011;49320;52.512;13.448;2023-03-01T14:49:09;3.13;;;1.90;;
63218;SDS011;49320;52.512;13.448;2023-03-01T14:51:47;2.65;;;2.00;;
63218;SDS011;49320;52.512;13.448;2023-03-01T14:54:26;2.45;;;1.88;;
63218;SDS011;49320;52.512;13.448;2023-03-01T14:57:12;2.80;;;2.08;;
63218;SDS011;49320;52.512;13.448;2023-03-01T14:59:43;2.58;;;1.80;;
63218;SDS011;49320;52.512;13.448;2023-03-01T15:02:13;3.28;;;1.85;;
63218;SDS011;49320;52.512;13.448;2023-03-01T15:04:52;3.65;;;1.88;;
63218;SDS011;49320;52.512;13.448;2023-03-01T15:07:26;3.15;;;2.05;;
63218;SDS011;49320;52.512;13.448;2023-03-01T15:14:55;3.67;;;2.05;;
63218;SDS011;49320;52.512;13.448;2023-03-01T15:17:33;2.85;;;2.40;;
63218;SDS011;49320;52.512;13.448;2023-03-01T15:20:05;4.35;;;2.78;;
63218;SDS011;49320;52.512;13.448;2023-03-01T15:22:44;4.45;;;1.98;;
63218;SDS011;49320;52.512;13.448;2023-03-01T15:25:18;5.68;;;2.03;;
63218;SDS011;49320;52.512;13.448;2023-03-01T15:27:49;2.88;;;1.77;;
63218;SDS011;49320;52.512;13.448;2023-03-01T15:30:26;2.53;;;1.70;;
63218;SDS011;49320;52.512;13.448;2023-03-01T15:33:17;2.80;;;2.13;;
63218;SDS011;49320;52.512;13.448;2023-03-01T15:35:57;4.47;;;1.52;;
63218;SDS011;49320;52.512;13.448;2023-03-01T15:38:58;2.72;;;1.95;;
63218;SDS011;49320;52.512;13.448;2023-03-01T15:47:21;2.50;;;2.13;;
63218;SDS011;49320;52.512;13.448;2023-03-01T15:49:56;3.72;;;2.30;;
63218;SDS011;49320;52.512;13.448;2023-03-01T15:52:35;2.65;;;2.13;;
63218;SDS011;49320;52.512;13.448;2023-03-01T15:55:15;2.20;;;1.83;;
63218;SDS011;49320;52.512;13.448;2023-03-01T15:57:49;4.38;;;2.00;;
63218;SDS011;49320;52.512;13.448;2023-03-01T16:00:25;3.30;;;2.10;;
63218;SDS011;49320;52.512;13.448;2023-03-01T16:02:52;3.80;;;2.17;;
63218;SDS011;49320;52.512;13.448;2023-03-01T16:05:23;2.97;;;2.08;;
63218;SDS011;49320;52.512;13.448;2023-03-01T16:07:57;4.50;;;2.45;;
63218;SDS011;49320;52.512;13.448;2023-03-01T16:10:24;3.58;;;1.98;;
63218;SDS011;49320;52.512;13.448;2023-03-01T16:12:51;3.40;;;2.20;;
63218;SDS011;49320;52.512;13.448;2023-03-01T16:17:48;3.05;;;2.40;;
63218;SDS011;49320;52.512;13.448;2023-03-01T16:20:15;3.35;;;2.58;;
63218;SDS011;49320;52.512;13.448;2023-03-01T16:22:53;4.85;;;2.75;;
63218;SDS011;49320;52.512;13.448;2023-03-01T16:25:21;4.80;;;3.10;;
63218;SDS011;49320;52.512;13.448;2023-03-01T16:27:48;4.38;;;2.50;;
63218;SDS011;49320;52.512;13.448;2023-03-01T16:30:18;4.38;;;2.78;;
63218;SDS011;49320;52.512;13.448;2023-03-01T16:32:48;4.63;;;3.05;;
63218;SDS011;49320;52.512;13.448;2023-03-01T16:35:17;4.57;;;3.10;;
63218;SDS011;49320;52.512;13.448;2023-03-01T16:37:46;4.88;;;2.95;;
63218;SDS011;49320;52.512;13.448;2023-03-01T16:40:19;4.35;;;2.83;;
63218;SDS011;49320;52.512;13.448;2023-03-01T16:42:54;4.70;;;3.10;;
63218;SDS011;49320;52.512;13.448;2023-03-01T16:45:26;4.28;;;2.58;;
63218;SDS011;49320;52.512;13.448;2023-03-01T16:47:58;4.22;;;2.55;;
63218;SDS011;49320;52.512;13.448;2023-03-01T16:50:25;3.30;;;2.38;;
63218;SDS011;49320;52.512;13.448;2023-03-01T16:52:52;3.10;;;2.15;;
63218;SDS011;49320;52.512;13.448;2023-03-01T16:55:18;3.25;;;1.88;;
63218;SDS011;49320;52.512;13.448;2023-03-01T16:57:45;2.63;;;2.10;;